Ventnor City, New Jersey
Current Conditions -  °F | °C
As of 8:14 AM on Thursday 30 Oct 2014 (Local Time) from KACY Reporting Station
Haze Haze  
Wind Chill: 42°   Ceiling: Unl
Heat Index: 42°   Visibility: 0.5mi
Dew Point: 42°   Wind: 0mph
Humidity: 100%   Direction: NA
Pressure: 30.01"   Gusts: NA
Location:  39.34°N, 74.48°W
Report Text: KACY 301214Z AUTO 00000KT 1/2SM BR SCT002 06/06 A3001 RMK AO2 SFC VIS 4 T00560056 TSNO
Loading
Personal Weather Stations






























Interactive Weather Map
Tropical Storm Tracking
New forecast layout! Learn more

10-Day Weather Forecast

Advertisements
Track Severe Weather on mobile